sensor_id;sensor_type;location;lat;lon;timestamp;pressure;altitude;pressure_sealevel;temperature;humidity
70242;BME280;57631;52.218;0.108;2022-08-06T00:01:37;102713.50;;;17.92;38.11
70242;BME280;57631;52.218;0.108;2022-08-06T00:04:03;102712.78;;;17.74;38.40
70242;BME280;57631;52.218;0.108;2022-08-06T00:06:28;102713.61;;;18.27;37.85
70242;BME280;57631;52.218;0.108;2022-08-06T00:08:53;102715.48;;;18.26;37.90
70242;BME280;57631;52.218;0.108;2022-08-06T00:11:19;102716.87;;;17.74;38.21
70242;BME280;57631;52.218;0.108;2022-08-06T00:13:44;102717.22;;;17.86;38.50
70242;BME280;57631;52.218;0.108;2022-08-06T00:16:10;102718.75;;;17.52;39.51
70242;BME280;57631;52.218;0.108;2022-08-06T00:18:35;102716.83;;;17.46;39.21
70242;BME280;57631;52.218;0.108;2022-08-06T00:21:01;102718.17;;;17.76;38.81
70242;BME280;57631;52.218;0.108;2022-08-06T00:23:26;102715.57;;;18.04;38.42
70242;BME280;57631;52.218;0.108;2022-08-06T00:25:52;102715.85;;;17.87;38.61
70242;BME280;57631;52.218;0.108;2022-08-06T00:28:17;102719.55;;;17.82;38.81
70242;BME280;57631;52.218;0.108;2022-08-06T00:30:42;102720.49;;;18.19;38.49
70242;BME280;57631;52.218;0.108;2022-08-06T00:33:08;102720.96;;;17.29;40.05
70242;BME280;57631;52.218;0.108;2022-08-06T00:35:33;102721.30;;;17.38;40.09
70242;BME280;57631;52.218;0.108;2022-08-06T00:37:59;102724.95;;;17.31;40.15
70242;BME280;57631;52.218;0.108;2022-08-06T00:40:25;102727.09;;;17.04;40.08
70242;BME280;57631;52.218;0.108;2022-08-06T00:42:50;102731.35;;;16.94;40.66
70242;BME280;57631;52.218;0.108;2022-08-06T00:45:16;102731.07;;;17.02;40.50
70242;BME280;57631;52.218;0.108;2022-08-06T00:47:41;102733.15;;;16.84;40.79
70242;BME280;57631;52.218;0.108;2022-08-06T00:50:07;102733.97;;;16.71;41.30
70242;BME280;57631;52.218;0.108;2022-08-06T00:52:32;102733.95;;;16.73;41.70
70242;BME280;57631;52.218;0.108;2022-08-06T00:54:57;102736.85;;;16.07;42.29
70242;BME280;57631;52.218;0.108;2022-08-06T00:57:23;102736.64;;;16.34;42.38
70242;BME280;57631;52.218;0.108;2022-08-06T00:59:48;102736.16;;;16.40;42.19
70242;BME280;57631;52.218;0.108;2022-08-06T01:02:14;102739.55;;;16.54;41.95
70242;BME280;57631;52.218;0.108;2022-08-06T01:04:39;102736.14;;;16.33;42.30
70242;BME280;57631;52.218;0.108;2022-08-06T01:07:05;102737.44;;;16.01;42.77
70242;BME280;57631;52.218;0.108;2022-08-06T01:09:30;102739.33;;;16.04;42.73
70242;BME280;57631;52.218;0.108;2022-08-06T01:11:56;102741.94;;;16.14;42.65
70242;BME280;57631;52.218;0.108;2022-08-06T01:14:21;102745.39;;;15.50;43.74
70242;BME280;57631;52.218;0.108;2022-08-06T01:16:49;102746.92;;;15.53;44.05
70242;BME280;57631;52.218;0.108;2022-08-06T01:19:22;102749.11;;;15.69;43.91
70242;BME280;57631;52.218;0.108;2022-08-06T01:21:49;102745.41;;;15.60;43.69
70242;BME280;57631;52.218;0.108;2022-08-06T01:24:17;102740.93;;;15.33;43.94
70242;BME280;57631;52.218;0.108;2022-08-06T01:26:36;102740.86;;;15.49;43.65
70242;BME280;57631;52.218;0.108;2022-08-06T01:28:58;102739.82;;;15.76;43.18
70242;BME280;57631;52.218;0.108;2022-08-06T01:31:23;102745.87;;;15.50;43.61
70242;BME280;57631;52.218;0.108;2022-08-06T01:33:48;102746.23;;;15.72;43.38
70242;BME280;57631;52.218;0.108;2022-08-06T01:36:16;102747.10;;;15.95;42.60
70242;BME280;57631;52.218;0.108;2022-08-06T01:38:41;102750.05;;;15.55;43.98
70242;BME280;57631;52.218;0.108;2022-08-06T01:41:05;102753.38;;;16.04;43.69
70242;BME280;57631;52.218;0.108;2022-08-06T01:43:27;102749.31;;;15.38;43.98
70242;BME280;57631;52.218;0.108;2022-08-06T01:45:53;102752.53;;;15.51;43.80
70242;BME280;57631;52.218;0.108;2022-08-06T01:48:21;102755.64;;;15.19;44.44
70242;BME280;57631;52.218;0.108;2022-08-06T01:50:46;102754.25;;;15.35;44.67
70242;BME280;57631;52.218;0.108;2022-08-06T01:53:13;102754.17;;;15.41;44.63
70242;BME280;57631;52.218;0.108;2022-08-06T01:55:39;102756.08;;;15.67;44.51
70242;BME280;57631;52.218;0.108;2022-08-06T01:58:01;102754.53;;;15.46;44.08
70242;BME280;57631;52.218;0.108;2022-08-06T02:00:25;102751.87;;;15.78;43.60
70242;BME280;57631;52.218;0.108;2022-08-06T02:02:51;102752.31;;;15.57;43.45
70242;BME280;57631;52.218;0.108;2022-08-06T02:05:18;102751.97;;;16.05;42.69
70242;BME280;57631;52.218;0.108;2022-08-06T02:07:44;102755.21;;;15.78;43.58
70242;BME280;57631;52.218;0.108;2022-08-06T02:10:09;102754.85;;;16.36;42.64
70242;BME280;57631;52.218;0.108;2022-08-06T02:12:33;102754.14;;;16.39;42.15
70242;BME280;57631;52.218;0.108;2022-08-06T02:15:00;102752.99;;;16.17;42.50
70242;BME280;57631;52.218;0.108;2022-08-06T02:17:25;102753.91;;;16.16;42.16
70242;BME280;57631;52.218;0.108;2022-08-06T02:19:50;102753.66;;;16.45;41.64
70242;BME280;57631;52.218;0.108;2022-08-06T02:22:14;102753.64;;;16.65;41.55
70242;BME280;57631;52.218;0.108;2022-08-06T02:24:40;102754.85;;;16.58;41.79
70242;BME280;57631;52.218;0.108;2022-08-06T02:27:07;102755.18;;;16.77;41.44
70242;BME280;57631;52.218;0.108;2022-08-06T02:29:31;102755.21;;;16.63;41.29
70242;BME280;57631;52.218;0.108;2022-08-06T02:31:56;102759.59;;;16.88;41.05
70242;BME280;57631;52.218;0.108;2022-08-06T02:34:22;102758.47;;;16.70;40.80
70242;BME280;57631;52.218;0.108;2022-08-06T02:36:53;102758.83;;;16.45;41.50
70242;BME280;57631;52.218;0.108;2022-08-06T02:39:18;102758.55;;;16.38;41.71
70242;BME280;57631;52.218;0.108;2022-08-06T02:41:41;102761.93;;;16.42;41.63
70242;BME280;57631;52.218;0.108;2022-08-06T02:44:09;102764.76;;;16.08;42.18
70242;BME280;57631;52.218;0.108;2022-08-06T02:46:36;102765.50;;;16.39;41.69
70242;BME280;57631;52.218;0.108;2022-08-06T02:48:59;102764.67;;;16.00;42.98
70242;BME280;57631;52.218;0.108;2022-08-06T02:51:24;102765.45;;;16.13;42.91
70242;BME280;57631;52.218;0.108;2022-08-06T02:53:53;102768.55;;;16.55;42.38
70242;BME280;57631;52.218;0.108;2022-08-06T02:56:13;102772.29;;;15.77;43.51
70242;BME280;57631;52.218;0.108;2022-08-06T02:58:38;102771.60;;;15.80;43.12
70242;BME280;57631;52.218;0.108;2022-08-06T03:01:05;102774.18;;;15.95;42.97
70242;BME280;57631;52.218;0.108;2022-08-06T03:03:26;102773.69;;;16.30;42.79
70242;BME280;57631;52.218;0.108;2022-08-06T03:05:52;102772.68;;;16.02;43.65
70242;BME280;57631;52.218;0.108;2022-08-06T03:08:19;102767.71;;;15.79;43.28
70242;BME280;57631;52.218;0.108;2022-08-06T03:10:42;102770.78;;;15.96;43.39
70242;BME280;57631;52.218;0.108;2022-08-06T03:13:08;102769.90;;;16.12;43.11
70242;BME280;57631;52.218;0.108;2022-08-06T03:15:34;102771.77;;;16.06;43.34
70242;BME280;57631;52.218;0.108;2022-08-06T03:17:59;102775.70;;;16.48;42.62
70242;BME280;57631;52.218;0.108;2022-08-06T03:20:23;102778.41;;;16.18;42.77
70242;BME280;57631;52.218;0.108;2022-08-06T03:22:51;102773.11;;;15.83;43.37
70242;BME280;57631;52.218;0.108;2022-08-06T03:25:15;102769.42;;;16.29;43.01
70242;BME280;57631;52.218;0.108;2022-08-06T03:27:41;102770.12;;;16.14;43.24
70242;BME280;57631;52.218;0.108;2022-08-06T03:30:07;102773.60;;;15.84;43.70
70242;BME280;57631;52.218;0.108;2022-08-06T03:32:31;102773.50;;;15.49;44.38
70242;BME280;57631;52.218;0.108;2022-08-06T03:34:56;102773.83;;;15.71;44.04
70242;BME280;57631;52.218;0.108;2022-08-06T03:37:23;102775.53;;;16.07;43.57
70242;BME280;57631;52.218;0.108;2022-08-06T03:39:49;102778.64;;;16.40;43.06
70242;BME280;57631;52.218;0.108;2022-08-06T03:42:13;102777.84;;;16.22;42.80
70242;BME280;57631;52.218;0.108;2022-08-06T03:44:38;102777.11;;;16.43;42.44
70242;BME280;57631;52.218;0.108;2022-08-06T03:47:07;102780.27;;;16.38;42.16
70242;BME280;57631;52.218;0.108;2022-08-06T03:49:35;102781.78;;;16.18;42.35
70242;BME280;57631;52.218;0.108;2022-08-06T03:51:56;102781.91;;;16.37;42.39
70242;BME280;57631;52.218;0.108;2022-08-06T03:54:25;102782.60;;;15.91;42.49
70242;BME280;57631;52.218;0.108;2022-08-06T03:56:46;102784.17;;;16.07;42.03
70242;BME280;57631;52.218;0.108;2022-08-06T03:59:12;102788.24;;;16.61;41.83
70242;BME280;57631;52.218;0.108;2022-08-06T04:01:40;102791.85;;;14.77;45.51
70242;BME280;57631;52.218;0.108;2022-08-06T04:04:03;102793.84;;;15.52;44.74
70242;BME280;57631;52.218;0.108;2022-08-06T04:06:29;102799.05;;;14.59;46.52
70242;BME280;57631;52.218;0.108;2022-08-06T04:08:54;102794.67;;;15.95;44.17
70242;BME280;57631;52.218;0.108;2022-08-06T04:11:19;102796.12;;;15.87;43.39
70242;BME280;57631;52.218;0.108;2022-08-06T04:13:44;102800.16;;;16.16;42.83
70242;BME280;57631;52.218;0.108;2022-08-06T04:16:11;102799.67;;;16.50;42.36
70242;BME280;57631;52.218;0.108;2022-08-06T04:18:38;102796.56;;;16.40;42.36
70242;BME280;57631;52.218;0.108;2022-08-06T04:21:04;102794.11;;;16.41;42.43
70242;BME280;57631;52.218;0.108;2022-08-06T04:23:26;102795.30;;;16.60;42.09
70242;BME280;57631;52.218;0.108;2022-08-06T04:25:53;102799.70;;;16.63;42.05
70242;BME280;57631;52.218;0.108;2022-08-06T04:28:19;102804.98;;;16.75;41.85
70242;BME280;57631;52.218;0.108;2022-08-06T04:30:42;102807.47;;;16.58;41.51
70242;BME280;57631;52.218;0.108;2022-08-06T04:33:11;102807.59;;;17.07;41.34
70242;BME280;57631;52.218;0.108;2022-08-06T04:35:34;102803.76;;;16.99;41.38
70242;BME280;57631;52.218;0.108;2022-08-06T04:38:00;102801.66;;;16.29;42.44
70242;BME280;57631;52.218;0.108;2022-08-06T04:40:25;102801.44;;;17.05;41.38
70242;BME280;57631;52.218;0.108;2022-08-06T04:42:49;102801.96;;;16.85;41.63
70242;BME280;57631;52.218;0.108;2022-08-06T04:45:15;102802.70;;;16.22;42.71
70242;BME280;57631;52.218;0.108;2022-08-06T04:47:41;102803.76;;;17.05;41.52
70242;BME280;57631;52.218;0.108;2022-08-06T04:50:06;102808.63;;;16.71;41.24
70242;BME280;57631;52.218;0.108;2022-08-06T04:52:31;102810.02;;;16.76;41.86
70242;BME280;57631;52.218;0.108;2022-08-06T04:54:56;102809.65;;;16.51;42.25
70242;BME280;57631;52.218;0.108;2022-08-06T04:57:21;102814.19;;;15.23;44.14
70242;BME280;57631;52.218;0.108;2022-08-06T04:59:47;102814.14;;;16.06;43.38
70242;BME280;57631;52.218;0.108;2022-08-06T05:02:13;102816.80;;;15.50;44.85
70242;BME280;57631;52.218;0.108;2022-08-06T05:04:39;102816.94;;;15.50;45.39
70242;BME280;57631;52.218;0.108;2022-08-06T05:07:11;102821.47;;;15.84;44.53
70242;BME280;57631;52.218;0.108;2022-08-06T05:09:29;102819.29;;;15.84;44.17
70242;BME280;57631;52.218;0.108;2022-08-06T05:12:00;102825.34;;;16.18;44.17
70242;BME280;57631;52.218;0.108;2022-08-06T05:14:24;102826.77;;;15.73;44.13
70242;BME280;57631;52.218;0.108;2022-08-06T05:16:47;102828.47;;;16.29;44.11
70242;BME280;57631;52.218;0.108;2022-08-06T05:19:19;102834.02;;;16.40;43.53
70242;BME280;57631;52.218;0.108;2022-08-06T05:21:39;102833.93;;;16.36;43.64
70242;BME280;57631;52.218;0.108;2022-08-06T05:24:03;102840.06;;;16.52;43.96
70242;BME280;57631;52.218;0.108;2022-08-06T05:26:29;102837.52;;;16.19;43.72
70242;BME280;57631;52.218;0.108;2022-08-06T05:28:54;102840.07;;;16.67;43.00
70242;BME280;57631;52.218;0.108;2022-08-06T05:31:28;102844.53;;;16.78;42.80
70242;BME280;57631;52.218;0.108;2022-08-06T05:33:45;102847.30;;;17.07;43.18
70242;BME280;57631;52.218;0.108;2022-08-06T05:36:12;102849.16;;;16.75;43.03
70242;BME280;57631;52.218;0.108;2022-08-06T05:38:38;102852.63;;;16.54;43.78
70242;BME280;57631;52.218;0.108;2022-08-06T05:41:03;102860.37;;;16.38;44.09
70242;BME280;57631;52.218;0.108;2022-08-06T05:43:27;102861.94;;;16.57;43.49
70242;BME280;57631;52.218;0.108;2022-08-06T05:45:56;102861.67;;;16.80;43.47
70242;BME280;57631;52.218;0.108;2022-08-06T05:48:20;102866.90;;;16.32;43.49
70242;BME280;57631;52.218;0.108;2022-08-06T05:50:48;102868.74;;;16.70;43.36
70242;BME280;57631;52.218;0.108;2022-08-06T05:53:11;102870.01;;;16.92;43.88
70242;BME280;57631;52.218;0.108;2022-08-06T05:55:38;102872.02;;;15.96;45.14
70242;BME280;57631;52.218;0.108;2022-08-06T05:58:03;102873.35;;;16.20;44.93
70242;BME280;57631;52.218;0.108;2022-08-06T06:00:27;102873.22;;;16.44;44.24
70242;BME280;57631;52.218;0.108;2022-08-06T06:02:54;102875.72;;;16.53;44.59
70242;BME280;57631;52.218;0.108;2022-08-06T06:05:16;102873.63;;;16.49;44.78
70242;BME280;57631;52.218;0.108;2022-08-06T06:07:41;102878.47;;;16.14;45.62
70242;BME280;57631;52.218;0.108;2022-08-06T06:10:08;102881.52;;;16.06;46.45
70242;BME280;57631;52.218;0.108;2022-08-06T06:12:33;102878.04;;;15.57;47.67
70242;BME280;57631;52.218;0.108;2022-08-06T06:14:57;102873.35;;;15.64;48.55
70242;BME280;57631;52.218;0.108;2022-08-06T06:17:33;102867.51;;;15.39;48.31
70242;BME280;57631;52.218;0.108;2022-08-06T06:19:56;102866.01;;;16.11;47.02
70242;BME280;57631;52.218;0.108;2022-08-06T06:22:18;102871.80;;;15.59;48.51
70242;BME280;57631;52.218;0.108;2022-08-06T06:24:41;102869.45;;;15.68;47.73
70242;BME280;57631;52.218;0.108;2022-08-06T06:27:07;102870.38;;;16.30;46.95
70242;BME280;57631;52.218;0.108;2022-08-06T06:29:36;102872.96;;;16.28;46.86
70242;BME280;57631;52.218;0.108;2022-08-06T06:32:00;102875.80;;;16.48;46.16
70242;BME280;57631;52.218;0.108;2022-08-06T06:34:23;102878.78;;;16.83;45.55
70242;BME280;57631;52.218;0.108;2022-08-06T06:36:51;102878.24;;;16.79;45.43
70242;BME280;57631;52.218;0.108;2022-08-06T06:39:18;102879.87;;;17.16;44.84
70242;BME280;57631;52.218;0.108;2022-08-06T06:41:41;102882.81;;;17.13;44.89
70242;BME280;57631;52.218;0.108;2022-08-06T06:44:08;102883.96;;;17.11;44.85
70242;BME280;57631;52.218;0.108;2022-08-06T06:46:32;102886.71;;;17.08;44.23
70242;BME280;57631;52.218;0.108;2022-08-06T06:48:55;102888.05;;;17.23;44.42
70242;BME280;57631;52.218;0.108;2022-08-06T06:51:23;102892.80;;;17.13;44.80
70242;BME280;57631;52.218;0.108;2022-08-06T06:53:46;102892.63;;;17.44;44.45
70242;BME280;57631;52.218;0.108;2022-08-06T06:56:09;102895.88;;;17.08;44.63
70242;BME280;57631;52.218;0.108;2022-08-06T06:58:36;102896.46;;;16.86;45.17
70242;BME280;57631;52.218;0.108;2022-08-06T07:01:01;102895.33;;;17.27;44.87
70242;BME280;57631;52.218;0.108;2022-08-06T07:03:27;102899.87;;;16.63;46.05
70242;BME280;57631;52.218;0.108;2022-08-06T07:05:52;102898.55;;;16.76;46.07
70242;BME280;57631;52.218;0.108;2022-08-06T07:08:20;102895.76;;;17.22;45.25
70242;BME280;57631;52.218;0.108;2022-08-06T07:10:43;102897.78;;;16.81;46.06
70242;BME280;57631;52.218;0.108;2022-08-06T07:13:09;102898.14;;;16.52;46.92
70242;BME280;57631;52.218;0.108;2022-08-06T07:15:34;102894.37;;;17.32;45.38
70242;BME280;57631;52.218;0.108;2022-08-06T07:17:59;102897.38;;;17.28;44.66
70242;BME280;57631;52.218;0.108;2022-08-06T07:20:27;102900.62;;;17.60;44.20
70242;BME280;57631;52.218;0.108;2022-08-06T07:22:51;102904.09;;;17.65;43.82
70242;BME280;57631;52.218;0.108;2022-08-06T07:25:16;102902.38;;;17.88;43.65
70242;BME280;57631;52.218;0.108;2022-08-06T07:27:44;102904.43;;;17.89;43.34
70242;BME280;57631;52.218;0.108;2022-08-06T07:30:07;102902.38;;;18.16;42.80
70242;BME280;57631;52.218;0.108;2022-08-06T07:32:33;102911.86;;;17.94;43.07
70242;BME280;57631;52.218;0.108;2022-08-06T07:34:57;102914.82;;;17.28;45.07
70242;BME280;57631;52.218;0.108;2022-08-06T07:37:23;102916.33;;;17.37;44.95
70242;BME280;57631;52.218;0.108;2022-08-06T07:39:49;102916.08;;;18.02;43.19
70242;BME280;57631;52.218;0.108;2022-08-06T07:42:14;102913.65;;;18.34;42.24
70242;BME280;57631;52.218;0.108;2022-08-06T07:44:42;102913.42;;;18.39;41.58
70242;BME280;57631;52.218;0.108;2022-08-06T07:47:04;102912.65;;;18.37;41.72
70242;BME280;57631;52.218;0.108;2022-08-06T07:49:35;102917.21;;;18.02;41.59
70242;BME280;57631;52.218;0.108;2022-08-06T07:51:55;102922.80;;;18.70;40.97
70242;BME280;57631;52.218;0.108;2022-08-06T07:54:22;102918.75;;;18.71;40.74
70242;BME280;57631;52.218;0.108;2022-08-06T07:56:46;102919.16;;;18.85;40.54
70242;BME280;57631;52.218;0.108;2022-08-06T07:59:11;102918.81;;;18.90;40.39
70242;BME280;57631;52.218;0.108;2022-08-06T08:01:38;102918.19;;;19.11;40.19
70242;BME280;57631;52.218;0.108;2022-08-06T08:04:02;102915.06;;;19.56;39.07
70242;BME280;57631;52.218;0.108;2022-08-06T08:06:28;102919.78;;;19.32;39.34
70242;BME280;57631;52.218;0.108;2022-08-06T08:08:54;102920.09;;;19.85;38.19
70242;BME280;57631;52.218;0.108;2022-08-06T08:11:18;102917.88;;;19.90;37.71
70242;BME280;57631;52.218;0.108;2022-08-06T08:13:43;102918.54;;;19.81;37.38
70242;BME280;57631;52.218;0.108;2022-08-06T08:16:11;102922.78;;;20.58;37.00
70242;BME280;57631;52.218;0.108;2022-08-06T08:18:33;102915.79;;;20.41;36.43
70242;BME280;57631;52.218;0.108;2022-08-06T08:21:00;102916.26;;;19.76;37.34
70242;BME280;57631;52.218;0.108;2022-08-06T08:23:25;102919.89;;;20.15;36.53
70242;BME280;57631;52.218;0.108;2022-08-06T08:25:50;102916.11;;;20.51;35.67
70242;BME280;57631;52.218;0.108;2022-08-06T08:28:15;102910.32;;;20.95;35.21
70242;BME280;57631;52.218;0.108;2022-08-06T08:30:41;102910.83;;;20.61;34.72
70242;BME280;57631;52.218;0.108;2022-08-06T08:33:06;102910.14;;;20.55;34.36
70242;BME280;57631;52.218;0.108;2022-08-06T08:35:31;102911.07;;;20.67;34.03
70242;BME280;57631;52.218;0.108;2022-08-06T08:37:57;102906.00;;;21.30;33.32
70242;BME280;57631;52.218;0.108;2022-08-06T08:40:23;102901.37;;;21.60;32.01
70242;BME280;57631;52.218;0.108;2022-08-06T08:42:49;102903.20;;;21.43;32.30
70242;BME280;57631;52.218;0.108;2022-08-06T08:45:13;102901.64;;;21.43;32.28
70242;BME280;57631;52.218;0.108;2022-08-06T08:47:44;102904.13;;;21.39;33.00
70242;BME280;57631;52.218;0.108;2022-08-06T08:50:05;102904.62;;;21.41;33.76
70242;BME280;57631;52.218;0.108;2022-08-06T08:52:33;102899.06;;;21.77;32.48
70242;BME280;57631;52.218;0.108;2022-08-06T08:54:58;102899.31;;;21.54;33.16
70242;BME280;57631;52.218;0.108;2022-08-06T08:57:20;102899.13;;;21.33;32.65
70242;BME280;57631;52.218;0.108;2022-08-06T08:59:46;102902.33;;;21.50;33.18
70242;BME280;57631;52.218;0.108;2022-08-06T09:02:13;102907.74;;;21.17;33.33
70242;BME280;57631;52.218;0.108;2022-08-06T09:04:37;102910.68;;;20.82;33.61
70242;BME280;57631;52.218;0.108;2022-08-06T09:07:02;102906.32;;;21.19;33.09
70242;BME280;57631;52.218;0.108;2022-08-06T09:09:28;102902.62;;;21.44;32.30
70242;BME280;57631;52.218;0.108;2022-08-06T09:11:52;102899.79;;;21.77;32.50
70242;BME280;57631;52.218;0.108;2022-08-06T09:14:20;102901.56;;;21.87;32.47
70242;BME280;57631;52.218;0.108;2022-08-06T09:16:43;102897.21;;;21.88;32.03
70242;BME280;57631;52.218;0.108;2022-08-06T09:19:08;102904.01;;;22.56;31.11
70242;BME280;57631;52.218;0.108;2022-08-06T09:21:34;102905.33;;;21.79;32.21
70242;BME280;57631;52.218;0.108;2022-08-06T09:23:59;102903.39;;;21.55;31.99
70242;BME280;57631;52.218;0.108;2022-08-06T09:26:24;102901.92;;;21.72;31.53
70242;BME280;57631;52.218;0.108;2022-08-06T09:28:49;102896.15;;;23.09;30.23
70242;BME280;57631;52.218;0.108;2022-08-06T09:31:16;102901.41;;;22.92;29.92
70242;BME280;57631;52.218;0.108;2022-08-06T09:33:42;102899.72;;;22.88;29.94
70242;BME280;57631;52.218;0.108;2022-08-06T09:36:08;102905.65;;;23.84;29.57
70242;BME280;57631;52.218;0.108;2022-08-06T09:38:31;102906.58;;;23.59;29.90
70242;BME280;57631;52.218;0.108;2022-08-06T09:41:02;102906.62;;;23.73;29.19
70242;BME280;57631;52.218;0.108;2022-08-06T09:43:26;102907.60;;;23.61;28.01
70242;BME280;57631;52.218;0.108;2022-08-06T09:45:47;102909.02;;;24.53;26.92
70242;BME280;57631;52.218;0.108;2022-08-06T09:48:12;102904.21;;;24.40;27.32
70242;BME280;57631;52.218;0.108;2022-08-06T09:50:39;102897.24;;;23.73;27.76
70242;BME280;57631;52.218;0.108;2022-08-06T09:53:03;102902.35;;;23.42;28.20
70242;BME280;57631;52.218;0.108;2022-08-06T09:55:29;102905.65;;;23.90;27.91
70242;BME280;57631;52.218;0.108;2022-08-06T09:57:53;102907.17;;;23.85;27.54
70242;BME280;57631;52.218;0.108;2022-08-06T10:00:25;102907.00;;;24.11;26.93
70242;BME280;57631;52.218;0.108;2022-08-06T10:02:44;102906.86;;;24.70;26.22
70242;BME280;57631;52.218;0.108;2022-08-06T10:05:11;102905.34;;;24.43;26.43
70242;BME280;57631;52.218;0.108;2022-08-06T10:07:34;102902.69;;;24.19;26.15
70242;BME280;57631;52.218;0.108;2022-08-06T10:10:00;102905.60;;;25.35;25.67
70242;BME280;57631;52.218;0.108;2022-08-06T10:12:25;102903.49;;;25.75;24.83
70242;BME280;57631;52.218;0.108;2022-08-06T10:14:56;102903.23;;;25.08;25.39
70242;BME280;57631;52.218;0.108;2022-08-06T10:17:18;102901.51;;;25.12;26.13
70242;BME280;57631;52.218;0.108;2022-08-06T10:19:43;102898.34;;;25.33;25.17
70242;BME280;57631;52.218;0.108;2022-08-06T10:22:08;102900.14;;;24.86;25.81
70242;BME280;57631;52.218;0.108;2022-08-06T10:24:35;102892.89;;;25.45;24.84
70242;BME280;57631;52.218;0.108;2022-08-06T10:26:58;102890.67;;;25.41;24.51
70242;BME280;57631;52.218;0.108;2022-08-06T10:29:24;102892.55;;;25.62;24.46
70242;BME280;57631;52.218;0.108;2022-08-06T10:31:50;102884.21;;;26.26;22.88
70242;BME280;57631;52.218;0.108;2022-08-06T10:34:18;102890.51;;;26.16;23.24
70242;BME280;57631;52.218;0.108;2022-08-06T10:36:43;102889.41;;;25.45;24.29
70242;BME280;57631;52.218;0.108;2022-08-06T10:39:05;102891.13;;;25.99;23.47
70242;BME280;57631;52.218;0.108;2022-08-06T10:41:30;102891.04;;;26.02;22.98
70242;BME280;57631;52.218;0.108;2022-08-06T10:43:55;102885.98;;;27.31;21.75
70242;BME280;57631;52.218;0.108;2022-08-06T10:46:21;102887.14;;;26.70;22.34
70242;BME280;57631;52.218;0.108;2022-08-06T10:48:46;102885.84;;;27.55;21.52
70242;BME280;57631;52.218;0.108;2022-08-06T10:51:12;102879.40;;;27.66;21.28
70242;BME280;57631;52.218;0.108;2022-08-06T10:53:38;102878.41;;;28.67;21.32
70242;BME280;57631;52.218;0.108;2022-08-06T10:56:04;102879.66;;;28.35;21.12
70242;BME280;57631;52.218;0.108;2022-08-06T10:58:28;102881.18;;;28.90;20.18
70242;BME280;57631;52.218;0.108;2022-08-06T11:00:52;102880.17;;;29.95;18.93
70242;BME280;57631;52.218;0.108;2022-08-06T11:03:24;102877.20;;;29.49;19.61
70242;BME280;57631;52.218;0.108;2022-08-06T11:05:46;102883.35;;;29.80;19.47
70242;BME280;57631;52.218;0.108;2022-08-06T11:08:19;102881.01;;;29.52;19.54
70242;BME280;57631;52.218;0.108;2022-08-06T11:10:46;102883.94;;;29.74;18.78
70242;BME280;57631;52.218;0.108;2022-08-06T11:13:07;102882.16;;;30.64;18.22
70242;BME280;57631;52.218;0.108;2022-08-06T11:15:25;102871.80;;;29.25;18.94
70242;BME280;57631;52.218;0.108;2022-08-06T11:17:52;102876.22;;;27.46;20.79
70242;BME280;57631;52.218;0.108;2022-08-06T11:22:41;102876.38;;;31.02;18.62
70242;BME280;57631;52.218;0.108;2022-08-06T11:25:08;102878.43;;;29.68;18.62
70242;BME280;57631;52.218;0.108;2022-08-06T11:34:47;102876.12;;;29.65;19.33
70242;BME280;57631;52.218;0.108;2022-08-06T11:42:04;102866.91;;;30.51;18.19
70242;BME280;57631;52.218;0.108;2022-08-06T11:44:30;102867.33;;;30.63;18.59
70242;BME280;57631;52.218;0.108;2022-08-06T11:49:22;102866.71;;;27.93;20.35
70242;BME280;57631;52.218;0.108;2022-08-06T11:51:47;102861.18;;;28.23;20.06
70242;BME280;57631;52.218;0.108;2022-08-06T11:54:13;102864.99;;;29.23;19.45
70242;BME280;57631;52.218;0.108;2022-08-06T11:56:35;102860.19;;;30.83;18.08
70242;BME280;57631;52.218;0.108;2022-08-06T12:03:51;102844.27;;;33.69;16.28
70242;BME280;57631;52.218;0.108;2022-08-06T12:06:22;102843.63;;;34.03;15.54
70242;BME280;57631;52.218;0.108;2022-08-06T12:08:42;102838.22;;;35.36;14.81
70242;BME280;57631;52.218;0.108;2022-08-06T12:13:38;102830.20;;;32.78;16.16
70242;BME280;57631;52.218;0.108;2022-08-06T12:15:58;102827.73;;;33.47;15.82
70242;BME280;57631;52.218;0.108;2022-08-06T12:18:24;102828.62;;;33.69;15.60
70242;BME280;57631;52.218;0.108;2022-08-06T12:20:50;102832.27;;;34.43;15.36
70242;BME280;57631;52.218;0.108;2022-08-06T12:23:16;102827.88;;;32.83;16.57
70242;BME280;57631;52.218;0.108;2022-08-06T12:25:41;102824.72;;;33.31;15.86
70242;BME280;57631;52.218;0.108;2022-08-06T12:28:05;102818.58;;;32.45;16.13
70242;BME280;57631;52.218;0.108;2022-08-06T12:30:39;102831.24;;;30.02;17.25
70242;BME280;57631;52.218;0.108;2022-08-06T12:33:00;102822.48;;;31.31;17.06
70242;BME280;57631;52.218;0.108;2022-08-06T12:35:20;102823.25;;;31.73;16.65
70242;BME280;57631;52.218;0.108;2022-08-06T12:37:46;102815.42;;;32.41;15.77
70242;BME280;57631;52.218;0.108;2022-08-06T12:40:12;102811.35;;;33.89;15.29
70242;BME280;57631;52.218;0.108;2022-08-06T12:42:36;102809.85;;;33.66;15.75
70242;BME280;57631;52.218;0.108;2022-08-06T12:45:02;102812.55;;;32.38;16.51
70242;BME280;57631;52.218;0.108;2022-08-06T12:47:27;102811.63;;;33.03;16.45
70242;BME280;57631;52.218;0.108;2022-08-06T12:49:53;102812.64;;;32.09;16.58
70242;BME280;57631;52.218;0.108;2022-08-06T12:52:19;102809.11;;;31.23;16.88
70242;BME280;57631;52.218;0.108;2022-08-06T12:54:43;102806.66;;;31.16;16.88
70242;BME280;57631;52.218;0.108;2022-08-06T12:59:34;102804.71;;;31.81;16.68
70242;BME280;57631;52.218;0.108;2022-08-06T13:02:00;102800.47;;;33.27;15.91
70242;BME280;57631;52.218;0.108;2022-08-06T13:04:26;102793.55;;;32.14;16.27
70242;BME280;57631;52.218;0.108;2022-08-06T13:06:50;102794.76;;;32.74;16.21